Time;durP1;ratioP1;P1;durP2;ratioP2;P2;SDS_P1;SDS_P2;PMS_P1;PMS_P2;Temp;Humidity;BMP_temperature;BMP_pressure;BME280_temperature;BME280_humidity;BME280_pressure;Samples;Min_cycle;Max_cycle;Signal;HPM_P1;HPM_P2
2023/03/16 00:02:08;;;;;;;1.30;1.30;;;;;;;;;;6237586;28;20300;-73
2023/03/16 00:05:15;;;;;;;1.20;1.20;;;;;;;;;;6237279;28;20288;-73
2023/03/16 00:08:20;;;;;;;1.47;1.37;;;;;;;;;;6236576;28;20394;-74
2023/03/16 00:11:25;;;;;;;2.80;1.40;;;;;;;;;;6221500;28;20301;-73
2023/03/16 00:14:34;;;;;;;1.93;1.20;;;;;;;;;;6212667;28;20293;-74
2023/03/16 00:17:39;;;;;;;1.50;1.40;;;;;;;;;;6212714;28;20297;-74
2023/03/16 00:20:44;;;;;;;1.30;1.20;;;;;;;;;;6212667;28;20308;-74
2023/03/16 00:23:52;;;;;;;1.50;1.20;;;;;;;;;;6212770;28;20322;-74
2023/03/16 00:26:57;;;;;;;2.17;1.30;;;;;;;;;;6212809;28;20300;-74
2023/03/16 00:30:05;;;;;;;3.27;1.37;;;;;;;;;;6212433;28;20293;-74
2023/03/16 00:33:12;;;;;;;1.93;1.33;;;;;;;;;;6212221;28;20309;-73
2023/03/16 00:36:17;;;;;;;1.80;1.43;;;;;;;;;;6219542;28;20578;-74
2023/03/16 00:39:23;;;;;;;1.40;1.40;;;;;;;;;;6236272;28;20293;-74
2023/03/16 00:42:30;;;;;;;3.83;1.20;;;;;;;;;;6236418;28;20475;-73
2023/03/16 00:45:37;;;;;;;2.90;1.33;;;;;;;;;;6234573;28;20355;-73
2023/03/16 00:48:44;;;;;;;1.40;1.27;;;;;;;;;;6235757;28;20482;-74
2023/03/16 00:51:50;;;;;;;1.10;1.10;;;;;;;;;;6236827;28;20368;-73
2023/03/16 00:54:57;;;;;;;1.27;1.10;;;;;;;;;;6236164;28;20304;-73
2023/03/16 00:58:03;;;;;;;2.33;1.20;;;;;;;;;;6234522;28;20368;-73
2023/03/16 01:01:13;;;;;;;1.20;1.20;;;;;;;;;;6235052;28;20294;-74
2023/03/16 01:04:19;;;;;;;2.60;1.30;;;;;;;;;;6235509;28;20591;-75
2023/03/16 01:07:24;;;;;;;1.00;1.00;;;;;;;;;;6234666;28;20303;-73
2023/03/16 01:10:29;;;;;;;3.60;1.13;;;;;;;;;;6227214;28;20309;-73
2023/03/16 01:13:34;;;;;;;1.83;1.20;;;;;;;;;;6208897;28;20368;-73
2023/03/16 01:16:44;;;;;;;1.30;1.20;;;;;;;;;;6210749;28;20505;-73
2023/03/16 01:19:50;;;;;;;1.00;1.00;;;;;;;;;;6211336;28;20296;-74
2023/03/16 01:22:55;;;;;;;1.23;1.10;;;;;;;;;;6209494;28;20319;-73
2023/03/16 01:26:01;;;;;;;1.53;1.43;;;;;;;;;;6210017;28;20293;-73
2023/03/16 01:29:06;;;;;;;1.10;1.10;;;;;;;;;;6208768;28;20470;-74
2023/03/16 01:32:13;;;;;;;1.60;1.10;;;;;;;;;;6210595;28;20296;-74
2023/03/16 01:35:20;;;;;;;1.10;1.10;;;;;;;;;;6209938;28;20296;-74
2023/03/16 01:38:27;;;;;;;1.13;1.13;;;;;;;;;;6228342;28;20299;-73
2023/03/16 01:41:32;;;;;;;1.40;1.40;;;;;;;;;;6234115;28;20323;-74
2023/03/16 01:44:56;;;;;;;2.53;1.30;;;;;;;;;;6235375;28;20308;-73
2023/03/16 01:48:09;;;;;;;1.70;1.30;;;;;;;;;;6233368;28;20293;-74
2023/03/16 01:51:19;;;;;;;1.27;1.20;;;;;;;;;;6235063;28;20295;-73
2023/03/16 01:54:28;;;;;;;1.20;1.20;;;;;;;;;;6232569;28;20315;-73
2023/03/16 01:57:35;;;;;;;1.17;1.17;;;;;;;;;;6233210;28;20463;-74
2023/03/16 02:00:44;;;;;;;1.07;1.07;;;;;;;;;;6233816;28;20295;-73
2023/03/16 02:04:05;;;;;;;1.27;1.17;;;;;;;;;;6242316;23;20331;-72
2023/03/16 02:07:15;;;;;;;1.20;1.20;;;;;;;;;;6232688;28;20288;-72
2023/03/16 02:10:21;;;;;;;1.30;1.20;;;;;;;;;;6233280;28;20296;-71
2023/03/16 02:13:28;;;;;;;3.60;1.20;;;;;;;;;;6234594;28;20298;-71
2023/03/16 02:16:33;;;;;;;1.10;1.10;;;;;;;;;;6232153;28;20435;-71
2023/03/16 02:19:47;;;;;;;2.60;1.37;;;;;;;;;;6232460;28;20445;-71
2023/03/16 02:22:54;;;;;;;1.40;1.30;;;;;;;;;;6232081;28;20315;-73
2023/03/16 02:26:03;;;;;;;3.20;1.17;;;;;;;;;;6234187;28;20290;-72
2023/03/16 02:29:20;;;;;;;1.23;1.23;;;;;;;;;;6232511;28;20322;-72
2023/03/16 02:32:31;;;;;;;2.83;1.40;;;;;;;;;;6233091;28;20298;-72
2023/03/16 02:35:38;;;;;;;1.07;1.07;;;;;;;;;;6231647;28;20594;-71
2023/03/16 02:38:45;;;;;;;1.20;1.10;;;;;;;;;;6234448;28;20599;-72
2023/03/16 02:41:53;;;;;;;1.03;1.03;;;;;;;;;;6233131;28;20328;-72
2023/03/16 02:44:59;;;;;;;2.10;1.10;;;;;;;;;;6231978;28;20302;-71
2023/03/16 02:48:18;;;;;;;1.10;1.10;;;;;;;;;;6232292;28;20314;-72
2023/03/16 02:51:23;;;;;;;1.00;1.00;;;;;;;;;;6232464;28;20299;-71
2023/03/16 02:54:28;;;;;;;1.10;1.10;;;;;;;;;;6232090;28;20414;-71
2023/03/16 02:57:34;;;;;;;2.53;1.00;;;;;;;;;;6232547;28;20300;-72
2023/03/16 03:00:45;;;;;;;2.43;1.17;;;;;;;;;;6233453;28;20486;-71
2023/03/16 03:03:54;;;;;;;1.10;1.10;;;;;;;;;;6235155;28;20320;-72
2023/03/16 03:07:03;;;;;;;0.97;0.97;;;;;;;;;;6238393;28;20299;-72
2023/03/16 03:10:21;;;;;;;5.00;1.13;;;;;;;;;;6236351;28;20467;-72
2023/03/16 03:13:26;;;;;;;1.97;1.20;;;;;;;;;;6237380;28;20303;-72
2023/03/16 03:16:31;;;;;;;0.97;0.97;;;;;;;;;;6236608;28;20315;-71
2023/03/16 03:19:38;;;;;;;1.00;1.00;;;;;;;;;;6234833;28;20299;-71
2023/03/16 03:22:45;;;;;;;1.10;1.10;;;;;;;;;;6237282;28;20270;-72
2023/03/16 03:25:50;;;;;;;1.10;1.10;;;;;;;;;;6235796;28;20273;-71
2023/03/16 03:28:56;;;;;;;2.30;1.20;;;;;;;;;;6236010;28;20291;-72
2023/03/16 03:32:02;;;;;;;1.17;1.17;;;;;;;;;;6237164;28;20418;-71
2023/03/16 03:35:11;;;;;;;1.30;1.20;;;;;;;;;;6235734;28;20294;-72
2023/03/16 03:38:16;;;;;;;1.00;1.00;;;;;;;;;;6234912;28;20513;-72
2023/03/16 03:41:22;;;;;;;1.13;1.00;;;;;;;;;;6235350;28;20311;-72
2023/03/16 03:44:33;;;;;;;1.10;1.10;;;;;;;;;;6235374;28;20298;-72
2023/03/16 03:47:38;;;;;;;1.50;1.10;;;;;;;;;;6235171;28;20294;-72
2023/03/16 03:50:47;;;;;;;1.20;1.10;;;;;;;;;;6235564;28;20368;-72
2023/03/16 03:54:15;;;;;;;0.93;0.93;;;;;;;;;;6234794;28;20296;-72
2023/03/16 03:57:26;;;;;;;2.40;1.10;;;;;;;;;;6236544;28;20295;-71
2023/03/16 04:00:32;;;;;;;2.10;1.00;;;;;;;;;;6235491;28;20306;-72
2023/03/16 04:03:37;;;;;;;1.17;1.17;;;;;;;;;;6232991;28;20319;-72
2023/03/16 04:06:45;;;;;;;1.60;1.20;;;;;;;;;;6235577;28;20290;-72
2023/03/16 04:09:50;;;;;;;1.00;1.00;;;;;;;;;;6234760;28;20298;-72
2023/03/16 04:13:04;;;;;;;1.13;1.13;;;;;;;;;;6234670;28;20386;-71
2023/03/16 04:16:15;;;;;;;1.10;1.10;;;;;;;;;;6233736;28;20294;-70
2023/03/16 04:19:23;;;;;;;2.10;1.00;;;;;;;;;;6233837;28;20304;-71
2023/03/16 04:22:33;;;;;;;1.27;1.27;;;;;;;;;;6234884;28;20295;-72
2023/03/16 04:25:41;;;;;;;1.10;1.10;;;;;;;;;;6233705;28;20298;-71
2023/03/16 04:28:46;;;;;;;1.10;1.10;;;;;;;;;;6234531;28;20619;-72
2023/03/16 04:31:55;;;;;;;1.10;1.10;;;;;;;;;;6235372;28;20290;-71
2023/03/16 04:35:01;;;;;;;1.13;1.00;;;;;;;;;;6234337;28;20289;-71
2023/03/16 04:38:22;;;;;;;1.20;1.10;;;;;;;;;;6233798;28;20439;-72
2023/03/16 04:41:31;;;;;;;1.10;1.10;;;;;;;;;;6234066;28;20305;-71
2023/03/16 04:44:48;;;;;;;1.30;1.20;;;;;;;;;;6234051;28;20298;-72
2023/03/16 04:47:53;;;;;;;1.03;1.03;;;;;;;;;;6233967;28;20296;-71
2023/03/16 04:51:02;;;;;;;1.10;1.10;;;;;;;;;;6235952;28;20299;-71
2023/03/16 04:54:13;;;;;;;1.00;1.00;;;;;;;;;;6233530;28;20295;-71
2023/03/16 04:57:20;;;;;;;2.83;1.10;;;;;;;;;;6233998;28;20299;-71
2023/03/16 05:00:29;;;;;;;1.00;1.00;;;;;;;;;;6233494;28;20302;-70
2023/03/16 05:03:43;;;;;;;2.00;1.20;;;;;;;;;;6233234;28;20547;-72
2023/03/16 05:06:48;;;;;;;1.30;1.30;;;;;;;;;;6233449;28;20302;-72
2023/03/16 05:09:58;;;;;;;2.60;1.20;;;;;;;;;;6233326;28;20298;-71
2023/03/16 05:13:04;;;;;;;1.33;1.23;;;;;;;;;;6232976;28;20295;-71
2023/03/16 05:16:11;;;;;;;1.33;1.27;;;;;;;;;;6234425;28;20585;-72
2023/03/16 05:19:18;;;;;;;1.10;1.00;;;;;;;;;;6233694;28;20310;-72
2023/03/16 05:22:24;;;;;;;1.17;1.17;;;;;;;;;;6233839;28;20353;-70
2023/03/16 05:26:03;;;;;;;1.90;1.20;;;;;;;;;;6205124;28;20298;-71
2023/03/16 05:29:12;;;;;;;1.10;1.10;;;;;;;;;;6209816;28;20311;-72
2023/03/16 05:32:18;;;;;;;1.10;1.10;;;;;;;;;;6209307;28;20438;-72
2023/03/16 05:35:23;;;;;;;1.37;1.23;;;;;;;;;;6209359;28;20610;-72
2023/03/16 05:38:33;;;;;;;3.93;1.37;;;;;;;;;;6209124;28;20302;-71
2023/03/16 05:41:39;;;;;;;2.53;1.10;;;;;;;;;;6209647;28;20315;-71
2023/03/16 05:45:09;;;;;;;1.17;1.17;;;;;;;;;;6229394;28;20602;-72
2023/03/16 05:48:24;;;;;;;1.10;1.10;;;;;;;;;;6232168;28;20322;-72
2023/03/16 05:51:33;;;;;;;1.03;1.03;;;;;;;;;;6218049;28;20462;-72
2023/03/16 05:54:41;;;;;;;2.23;1.47;;;;;;;;;;6233651;28;20398;-71
2023/03/16 05:57:49;;;;;;;0.90;0.90;;;;;;;;;;6233642;28;20291;-72
2023/03/16 06:00:55;;;;;;;1.10;1.10;;;;;;;;;;6233726;28;20479;-72
2023/03/16 06:04:06;;;;;;;1.10;1.10;;;;;;;;;;6233344;28;20306;-73
2023/03/16 06:07:16;;;;;;;1.27;1.27;;;;;;;;;;6233945;28;20300;-71
2023/03/16 06:10:21;;;;;;;6.00;1.20;;;;;;;;;;6233185;28;20302;-71
2023/03/16 06:13:28;;;;;;;1.17;1.17;;;;;;;;;;6233806;28;20314;-71
2023/03/16 06:16:34;;;;;;;1.20;1.20;;;;;;;;;;6232541;28;20456;-71
2023/03/16 06:19:40;;;;;;;1.27;1.27;;;;;;;;;;6233157;28;20317;-71
2023/03/16 06:22:46;;;;;;;1.10;1.10;;;;;;;;;;6232973;28;20277;-71
2023/03/16 06:25:54;;;;;;;2.53;1.50;;;;;;;;;;6233663;28;20326;-71
2023/03/16 06:29:03;;;;;;;3.60;1.60;;;;;;;;;;6234685;28;20295;-71
2023/03/16 06:32:13;;;;;;;1.30;1.13;;;;;;;;;;6233119;28;20298;-71
2023/03/16 06:35:18;;;;;;;2.03;1.30;;;;;;;;;;6232017;28;20290;-72
2023/03/16 06:38:39;;;;;;;4.23;1.40;;;;;;;;;;6234607;28;20583;-71
2023/03/16 06:41:59;;;;;;;1.33;1.33;;;;;;;;;;6238193;28;20302;-72
2023/03/16 06:45:08;;;;;;;1.60;1.20;;;;;;;;;;6238671;28;20298;-72
2023/03/16 06:48:14;;;;;;;3.33;1.47;;;;;;;;;;6237823;28;20435;-73
2023/03/16 06:51:21;;;;;;;2.20;1.63;;;;;;;;;;6237710;28;20305;-71
2023/03/16 06:54:28;;;;;;;2.47;1.23;;;;;;;;;;6238043;28;20302;-69
2023/03/16 06:57:33;;;;;;;1.60;1.50;;;;;;;;;;6238722;28;20581;-72
2023/03/16 07:00:40;;;;;;;4.50;1.53;;;;;;;;;;6238183;28;20311;-72
2023/03/16 07:03:46;;;;;;;1.33;1.33;;;;;;;;;;6236147;28;20508;-72
2023/03/16 07:06:57;;;;;;;1.77;1.67;;;;;;;;;;6237642;28;20479;-73
2023/03/16 07:10:04;;;;;;;2.00;1.87;;;;;;;;;;6236465;28;20288;-73
2023/03/16 07:13:10;;;;;;;4.43;1.60;;;;;;;;;;6238659;28;20300;-73
2023/03/16 07:16:17;;;;;;;4.70;1.83;;;;;;;;;;6236904;28;20299;-72
2023/03/16 07:19:22;;;;;;;1.40;1.40;;;;;;;;;;6237013;28;20318;-72
2023/03/16 07:22:28;;;;;;;1.60;1.50;;;;;;;;;;6237552;28;20291;-72
2023/03/16 07:25:34;;;;;;;4.17;1.60;;;;;;;;;;6235712;28;20307;-72
2023/03/16 07:28:40;;;;;;;2.73;1.70;;;;;;;;;;6237041;28;20595;-72
2023/03/16 07:31:48;;;;;;;2.83;1.73;;;;;;;;;;6237209;28;20358;-72
2023/03/16 07:34:57;;;;;;;1.60;1.60;;;;;;;;;;6236445;28;20424;-74
2023/03/16 07:38:09;;;;;;;4.00;1.80;;;;;;;;;;6236729;28;20295;-73
2023/03/16 07:41:15;;;;;;;3.73;1.40;;;;;;;;;;6237004;28;20300;-71
2023/03/16 07:44:20;;;;;;;5.50;1.70;;;;;;;;;;6236516;28;20296;-71
2023/03/16 07:47:29;;;;;;;5.80;1.90;;;;;;;;;;6237233;28;20307;-72
2023/03/16 07:50:39;;;;;;;3.13;1.83;;;;;;;;;;6234732;28;20400;-71
2023/03/16 07:53:44;;;;;;;2.47;1.83;;;;;;;;;;6236078;28;20470;-73
2023/03/16 07:56:57;;;;;;;1.63;1.50;;;;;;;;;;6236363;28;20319;-73
2023/03/16 08:00:16;;;;;;;6.07;1.97;;;;;;;;;;6236087;28;20300;-72
2023/03/16 08:03:24;;;;;;;10.17;2.10;;;;;;;;;;6235834;28;20308;-72
2023/03/16 08:06:32;;;;;;;3.43;1.63;;;;;;;;;;6236128;28;20299;-72
2023/03/16 08:09:40;;;;;;;2.37;1.73;;;;;;;;;;6235649;28;20291;-73
2023/03/16 08:12:47;;;;;;;5.43;2.63;;;;;;;;;;6235895;28;20299;-72
2023/03/16 08:15:57;;;;;;;6.67;1.77;;;;;;;;;;6236487;28;20291;-73
2023/03/16 08:19:16;;;;;;;6.00;2.13;;;;;;;;;;6236574;28;20297;-72
2023/03/16 08:22:21;;;;;;;2.73;1.70;;;;;;;;;;6237460;28;20292;-71
2023/03/16 08:25:26;;;;;;;2.83;1.83;;;;;;;;;;6236624;28;20295;-73
2023/03/16 08:28:40;;;;;;;6.90;1.73;;;;;;;;;;6234319;28;20295;-72
2023/03/16 08:31:48;;;;;;;3.37;1.97;;;;;;;;;;6235672;28;20280;-72
2023/03/16 08:35:06;;;;;;;2.70;1.70;;;;;;;;;;6235935;28;20588;-72
2023/03/16 08:38:15;;;;;;;2.57;2.00;;;;;;;;;;6219611;28;20307;-72
2023/03/16 08:41:21;;;;;;;3.67;2.33;;;;;;;;;;6235751;28;20296;-71
2023/03/16 08:44:28;;;;;;;9.47;2.53;;;;;;;;;;6234950;28;20295;-72
2023/03/16 08:47:34;;;;;;;7.60;2.03;;;;;;;;;;6235413;28;20293;-72
2023/03/16 08:50:42;;;;;;;3.40;2.10;;;;;;;;;;6234593;28;20656;-71
2023/03/16 08:53:47;;;;;;;12.33;2.20;;;;;;;;;;6235938;28;20292;-71
2023/03/16 08:56:53;;;;;;;6.73;1.80;;;;;;;;;;6235648;28;20296;-72
2023/03/16 08:59:58;;;;;;;4.77;2.23;;;;;;;;;;6235991;28;20484;-72
2023/03/16 09:03:03;;;;;;;5.97;2.60;;;;;;;;;;6235189;28;20299;-72
2023/03/16 09:06:12;;;;;;;8.33;2.10;;;;;;;;;;6236290;28;20313;-72
2023/03/16 09:09:18;;;;;;;4.00;2.20;;;;;;;;;;6235845;28;20296;-73
2023/03/16 09:12:23;;;;;;;10.40;2.03;;;;;;;;;;6236132;28;20294;-72
2023/03/16 09:15:30;;;;;;;4.17;2.00;;;;;;;;;;6235450;28;20380;-72
2023/03/16 09:18:36;;;;;;;2.53;1.80;;;;;;;;;;6235736;28;20478;-71
2023/03/16 09:21:43;;;;;;;2.93;2.10;;;;;;;;;;6235905;28;20363;-73
2023/03/16 09:24:51;;;;;;;7.53;1.77;;;;;;;;;;6235175;28;20294;-74
2023/03/16 09:27:56;;;;;;;9.20;1.80;;;;;;;;;;6234165;28;20295;-72
2023/03/16 09:31:02;;;;;;;4.87;1.93;;;;;;;;;;6235791;28;20290;-71
2023/03/16 09:34:08;;;;;;;5.90;2.00;;;;;;;;;;6234094;28;20300;-71
2023/03/16 09:37:15;;;;;;;2.77;1.90;;;;;;;;;;6236165;28;20318;-72
2023/03/16 09:40:23;;;;;;;2.13;1.90;;;;;;;;;;6235023;28;20300;-72
2023/03/16 09:43:51;;;;;;;3.70;1.70;;;;;;;;;;6236635;28;20297;-72
2023/03/16 09:46:57;;;;;;;2.10;1.97;;;;;;;;;;6233708;28;20284;-72
2023/03/16 09:50:07;;;;;;;5.53;1.67;;;;;;;;;;6235596;28;20544;-72
2023/03/16 09:53:23;;;;;;;3.50;1.83;;;;;;;;;;6234792;28;20596;-72
2023/03/16 09:56:31;;;;;;;12.57;1.93;;;;;;;;;;6234633;28;20313;-72
2023/03/16 09:59:36;;;;;;;3.10;1.83;;;;;;;;;;6235176;28;20303;-72
2023/03/16 10:03:07;;;;;;;8.13;1.90;;;;;;;;;;6234890;28;20306;-74
2023/03/16 10:06:13;;;;;;;3.00;1.57;;;;;;;;;;6228479;28;20478;-72
2023/03/16 10:09:28;;;;;;;4.00;1.73;;;;;;;;;;6235068;28;20293;-72
2023/03/16 10:12:40;;;;;;;2.33;2.00;;;;;;;;;;6223283;28;20296;-72
2023/03/16 10:15:47;;;;;;;2.73;1.90;;;;;;;;;;6239206;28;20503;-71
2023/03/16 10:18:57;;;;;;;2.00;1.87;;;;;;;;;;6240107;28;20318;-72
2023/03/16 10:22:09;;;;;;;2.93;1.63;;;;;;;;;;6240742;28;20591;-72
2023/03/16 10:25:22;;;;;;;1.80;1.70;;;;;;;;;;6239791;28;20479;-72
2023/03/16 10:28:30;;;;;;;1.67;1.57;;;;;;;;;;6239592;28;20297;-73
2023/03/16 10:31:37;;;;;;;1.90;1.70;;;;;;;;;;6239957;28;20267;-73
2023/03/16 10:34:43;;;;;;;2.87;1.87;;;;;;;;;;6238134;28;20296;-72
2023/03/16 10:37:49;;;;;;;5.13;1.50;;;;;;;;;;6239137;28;20272;-73
2023/03/16 10:40:56;;;;;;;11.70;1.90;;;;;;;;;;6240695;28;20296;-72
2023/03/16 10:44:07;;;;;;;5.13;1.70;;;;;;;;;;6238268;28;20307;-72
2023/03/16 10:47:18;;;;;;;4.70;1.73;;;;;;;;;;6239858;28;20583;-72
2023/03/16 10:50:26;;;;;;;2.37;1.67;;;;;;;;;;6239406;28;20306;-73
2023/03/16 10:53:34;;;;;;;8.77;1.80;;;;;;;;;;6237374;28;20307;-73
2023/03/16 10:56:41;;;;;;;3.27;2.10;;;;;;;;;;6238299;28;20307;-72
2023/03/16 10:59:49;;;;;;;6.03;2.00;;;;;;;;;;6239146;28;20539;-72
2023/03/16 11:02:56;;;;;;;2.23;1.97;;;;;;;;;;6238511;28;20292;-71
2023/03/16 11:06:03;;;;;;;1.73;1.63;;;;;;;;;;6239530;28;20345;-71
2023/03/16 11:09:18;;;;;;;2.90;2.10;;;;;;;;;;6238413;28;20315;-72
2023/03/16 11:12:27;;;;;;;4.57;1.70;;;;;;;;;;6239630;28;20292;-73
2023/03/16 11:15:38;;;;;;;4.87;1.70;;;;;;;;;;6238971;28;20316;-72
2023/03/16 11:18:47;;;;;;;3.30;1.77;;;;;;;;;;6238700;28;20301;-73
2023/03/16 11:21:56;;;;;;;14.80;2.47;;;;;;;;;;6238883;28;20288;-73
2023/03/16 11:25:05;;;;;;;2.93;1.80;;;;;;;;;;6238216;28;20300;-73
2023/03/16 11:28:17;;;;;;;3.43;1.70;;;;;;;;;;6238622;28;20296;-71
2023/03/16 11:31:29;;;;;;;2.20;1.80;;;;;;;;;;6238959;28;20299;-72
2023/03/16 11:34:35;;;;;;;2.73;1.80;;;;;;;;;;6235964;28;20306;-72
2023/03/16 11:37:54;;;;;;;1.27;1.20;;;;;;;;;;6232916;28;20288;-73
2023/03/16 11:41:32;;;;;;;2.27;2.10;;;;;;;;;;6239111;28;20474;-73
2023/03/16 11:44:43;;;;;;;4.27;2.20;;;;;;;;;;6236621;28;20415;-73
2023/03/16 11:48:07;;;;;;;5.77;1.83;;;;;;;;;;6238130;28;20295;-71
2023/03/16 11:51:19;;;;;;;9.87;2.13;;;;;;;;;;6238321;28;20303;-73
2023/03/16 11:54:40;;;;;;;10.03;2.40;;;;;;;;;;6237808;28;20380;-72
2023/03/16 11:57:51;;;;;;;3.00;2.20;;;;;;;;;;6236062;28;20582;-72
2023/03/16 12:01:07;;;;;;;2.77;2.00;;;;;;;;;;6237909;28;20300;-72
2023/03/16 12:04:35;;;;;;;5.37;2.30;;;;;;;;;;6237147;28;20323;-72
2023/03/16 12:07:50;;;;;;;8.03;2.07;;;;;;;;;;6235142;28;20269;-72
2023/03/16 12:11:01;;;;;;;4.70;1.83;;;;;;;;;;6237188;28;20290;-75
2023/03/16 12:14:15;;;;;;;1.97;1.87;;;;;;;;;;6211557;28;20290;-72
2023/03/16 12:17:25;;;;;;;2.43;1.60;;;;;;;;;;6213044;28;20362;-73
2023/03/16 12:20:34;;;;;;;4.53;1.70;;;;;;;;;;6212104;28;20443;-72
2023/03/16 12:23:42;;;;;;;5.80;2.00;;;;;;;;;;6212195;28;20304;-73
2023/03/16 12:26:48;;;;;;;3.53;1.93;;;;;;;;;;6213487;28;20377;-73
2023/03/16 12:30:00;;;;;;;4.73;1.80;;;;;;;;;;6212514;28;20568;-73
2023/03/16 12:33:11;;;;;;;4.70;1.90;;;;;;;;;;6214275;28;20303;-72
2023/03/16 12:36:59;;;;;;;6.10;2.10;;;;;;;;;;6210792;28;20476;-73
2023/03/16 12:40:15;;;;;;;2.93;1.70;;;;;;;;;;6189794;28;20578;-72
2023/03/16 12:43:37;;;;;;;2.50;1.80;;;;;;;;;;6211524;28;20303;-72
2023/03/16 12:46:55;;;;;;;4.43;2.40;;;;;;;;;;6211098;28;20275;-72
2023/03/16 12:50:07;;;;;;;3.63;2.07;;;;;;;;;;6210587;28;20291;-72
2023/03/16 12:53:38;;;;;;;8.30;2.13;;;;;;;;;;6211433;28;20301;-72
2023/03/16 12:56:46;;;;;;;1.67;1.57;;;;;;;;;;6212181;28;20307;-73
2023/03/16 12:59:59;;;;;;;6.70;2.00;;;;;;;;;;6211343;28;20303;-72
2023/03/16 13:03:05;;;;;;;2.53;1.93;;;;;;;;;;6209593;28;20554;-73
2023/03/16 13:06:21;;;;;;;5.87;1.70;;;;;;;;;;6211968;28;20327;-72
2023/03/16 13:09:30;;;;;;;6.30;1.80;;;;;;;;;;6211686;28;20364;-72
2023/03/16 13:12:40;;;;;;;5.03;1.67;;;;;;;;;;6224033;28;20437;-72
2023/03/16 13:15:48;;;;;;;2.23;1.53;;;;;;;;;;6235880;28;20303;-72
2023/03/16 13:18:53;;;;;;;1.93;1.67;;;;;;;;;;6236024;28;20302;-72
2023/03/16 13:22:19;;;;;;;4.87;1.80;;;;;;;;;;6236335;28;20313;-73
2023/03/16 13:25:39;;;;;;;3.27;2.00;;;;;;;;;;6235137;28;20303;-72
2023/03/16 13:28:50;;;;;;;3.30;1.93;;;;;;;;;;6234747;28;20303;-72
2023/03/16 13:31:56;;;;;;;6.93;2.23;;;;;;;;;;6236209;28;20295;-73
2023/03/16 13:35:03;;;;;;;3.40;1.53;;;;;;;;;;6235891;28;20290;-72
2023/03/16 13:38:16;;;;;;;2.43;1.60;;;;;;;;;;6235790;28;20313;-72
2023/03/16 13:41:22;;;;;;;4.20;1.90;;;;;;;;;;6236476;28;20320;-73
2023/03/16 13:44:28;;;;;;;3.63;1.50;;;;;;;;;;6235856;28;20569;-72
2023/03/16 13:47:33;;;;;;;1.77;1.70;;;;;;;;;;6235631;28;20298;-73
2023/03/16 13:50:40;;;;;;;6.33;1.80;;;;;;;;;;6234568;28;20318;-73
2023/03/16 13:53:47;;;;;;;3.50;1.80;;;;;;;;;;6235381;28;20477;-72
2023/03/16 13:56:53;;;;;;;4.97;1.90;;;;;;;;;;6237165;28;20319;-72
2023/03/16 14:00:04;;;;;;;5.53;2.20;;;;;;;;;;6235428;28;20465;-73
2023/03/16 14:03:16;;;;;;;7.10;3.23;;;;;;;;;;6233943;28;20327;-73
2023/03/16 14:06:25;;;;;;;5.17;2.10;;;;;;;;;;6236131;28;20300;-73
2023/03/16 14:09:35;;;;;;;2.20;2.10;;;;;;;;;;6235218;28;20307;-72
2023/03/16 14:12:40;;;;;;;2.77;1.47;;;;;;;;;;6235198;28;20462;-72
2023/03/16 14:15:46;;;;;;;3.50;1.80;;;;;;;;;;6233255;28;20406;-72
2023/03/16 14:18:55;;;;;;;1.80;1.70;;;;;;;;;;6235615;28;20315;-72
2023/03/16 14:22:04;;;;;;;1.70;1.70;;;;;;;;;;6234383;28;20303;-72
2023/03/16 14:25:20;;;;;;;12.60;2.37;;;;;;;;;;6233655;28;20506;-73
2023/03/16 14:28:30;;;;;;;6.57;2.10;;;;;;;;;;6233177;28;20316;-72
2023/03/16 14:31:40;;;;;;;6.80;1.60;;;;;;;;;;6232901;28;20271;-72
2023/03/16 14:34:50;;;;;;;4.27;1.67;;;;;;;;;;6233369;28;20299;-72
2023/03/16 14:37:56;;;;;;;4.97;1.40;;;;;;;;;;6234591;28;20315;-73
2023/03/16 14:41:08;;;;;;;3.83;1.93;;;;;;;;;;6235401;28;20292;-73
2023/03/16 14:44:20;;;;;;;3.17;1.67;;;;;;;;;;6234664;28;20300;-72
2023/03/16 14:47:28;;;;;;;2.63;2.00;;;;;;;;;;6235380;28;20591;-73
2023/03/16 14:50:33;;;;;;;2.50;1.53;;;;;;;;;;6234807;28;20308;-73
2023/03/16 14:53:39;;;;;;;7.93;1.77;;;;;;;;;;6234661;28;20300;-73
2023/03/16 14:56:49;;;;;;;6.83;1.50;;;;;;;;;;6235411;28;20311;-73
2023/03/16 14:59:54;;;;;;;5.90;1.53;;;;;;;;;;6235689;28;20300;-73
2023/03/16 15:03:02;;;;;;;3.63;1.70;;;;;;;;;;6238866;28;20299;-73
2023/03/16 15:06:07;;;;;;;5.33;1.53;;;;;;;;;;6239128;28;20319;-72
2023/03/16 15:09:43;;;;;;;2.27;1.37;;;;;;;;;;6238757;28;20450;-73
2023/03/16 15:12:52;;;;;;;3.60;1.47;;;;;;;;;;6227028;28;20314;-73
2023/03/16 15:15:58;;;;;;;3.60;1.87;;;;;;;;;;6239161;28;20378;-73
2023/03/16 15:19:03;;;;;;;7.90;1.70;;;;;;;;;;6240165;28;20310;-73
2023/03/16 15:22:12;;;;;;;4.93;1.77;;;;;;;;;;6239905;28;20303;-72
2023/03/16 15:25:27;;;;;;;4.83;2.60;;;;;;;;;;6238685;28;20307;-72
2023/03/16 15:28:34;;;;;;;16.60;2.33;;;;;;;;;;6237668;28;20299;-71
2023/03/16 15:31:39;;;;;;;3.37;1.60;;;;;;;;;;6238303;28;20578;-72
2023/03/16 15:34:45;;;;;;;3.67;1.90;;;;;;;;;;6238704;28;20289;-73
2023/03/16 15:37:51;;;;;;;6.43;1.70;;;;;;;;;;6236816;28;20276;-72
2023/03/16 15:40:56;;;;;;;8.33;2.07;;;;;;;;;;6237186;28;20329;-73
2023/03/16 15:44:03;;;;;;;5.73;1.53;;;;;;;;;;6236858;28;20316;-73
2023/03/16 15:47:09;;;;;;;2.20;1.40;;;;;;;;;;6238723;28;20310;-73
2023/03/16 15:50:16;;;;;;;2.53;1.43;;;;;;;;;;6238169;28;20293;-73
2023/03/16 15:53:26;;;;;;;2.90;1.50;;;;;;;;;;6238207;28;20299;-73
2023/03/16 15:56:38;;;;;;;7.60;1.60;;;;;;;;;;6238888;28;20306;-73
2023/03/16 16:00:00;;;;;;;4.53;1.43;;;;;;;;;;6238661;28;20352;-72
2023/03/16 16:03:06;;;;;;;6.00;1.53;;;;;;;;;;6237057;28;20615;-72
2023/03/16 16:06:12;;;;;;;6.60;1.50;;;;;;;;;;6239115;28;20295;-72
2023/03/16 16:09:17;;;;;;;7.00;1.53;;;;;;;;;;6238294;28;20484;-73
2023/03/16 16:12:25;;;;;;;5.77;1.47;;;;;;;;;;6237487;28;20288;-72
2023/03/16 16:15:35;;;;;;;6.53;1.70;;;;;;;;;;6238077;28;20546;-73
2023/03/16 16:18:41;;;;;;;4.27;1.77;;;;;;;;;;6242954;28;20487;-73
2023/03/16 16:21:46;;;;;;;6.10;1.60;;;;;;;;;;6246862;28;20293;-71
2023/03/16 16:24:52;;;;;;;8.07;2.10;;;;;;;;;;6246093;28;20312;-72
2023/03/16 16:27:57;;;;;;;4.77;1.73;;;;;;;;;;6245421;28;20298;-72
2023/03/16 16:31:11;;;;;;;4.23;1.50;;;;;;;;;;6246994;28;20368;-72
2023/03/16 16:34:19;;;;;;;9.33;1.73;;;;;;;;;;6247325;28;20293;-73
2023/03/16 16:37:25;;;;;;;24.37;2.47;;;;;;;;;;6246665;28;20254;-72
2023/03/16 16:40:37;;;;;;;4.97;2.17;;;;;;;;;;6245608;28;20240;-74
2023/03/16 16:43:44;;;;;;;13.93;1.87;;;;;;;;;;6246908;28;20314;-72
2023/03/16 16:46:51;;;;;;;12.27;2.00;;;;;;;;;;6247331;28;20303;-71
2023/03/16 16:49:56;;;;;;;10.40;2.43;;;;;;;;;;6246382;28;20301;-73
2023/03/16 16:53:02;;;;;;;7.57;1.80;;;;;;;;;;6246253;28;20303;-71
2023/03/16 16:56:14;;;;;;;10.53;2.47;;;;;;;;;;6244938;28;20423;-73
2023/03/16 16:59:21;;;;;;;14.10;1.80;;;;;;;;;;6245688;28;20295;-70
2023/03/16 17:02:31;;;;;;;10.57;2.43;;;;;;;;;;6245183;28;20297;-71
2023/03/16 17:05:42;;;;;;;10.63;1.70;;;;;;;;;;6229205;28;20296;-71
2023/03/16 17:08:49;;;;;;;8.20;1.97;;;;;;;;;;6245356;28;20298;-72
2023/03/16 17:11:55;;;;;;;5.43;1.73;;;;;;;;;;6246168;28;20293;-74
2023/03/16 17:15:00;;;;;;;6.30;1.80;;;;;;;;;;6245504;28;20312;-71
2023/03/16 17:18:12;;;;;;;3.03;1.70;;;;;;;;;;6242673;28;20296;-72
2023/03/16 17:21:19;;;;;;;7.00;2.17;;;;;;;;;;6242270;28;20293;-72
2023/03/16 17:24:24;;;;;;;11.23;2.03;;;;;;;;;;6242165;28;20332;-72
2023/03/16 17:27:31;;;;;;;13.37;2.10;;;;;;;;;;6238077;28;20308;-73
2023/03/16 17:30:37;;;;;;;10.30;2.30;;;;;;;;;;6237218;28;20299;-72
2023/03/16 17:33:44;;;;;;;8.47;2.53;;;;;;;;;;6234696;28;20303;-72
2023/03/16 17:36:51;;;;;;;5.67;2.50;;;;;;;;;;6236572;28;20303;-73
2023/03/16 17:39:57;;;;;;;4.40;2.33;;;;;;;;;;6235999;28;20297;-74
2023/03/16 17:43:02;;;;;;;9.73;2.43;;;;;;;;;;6236521;28;20297;-71
2023/03/16 17:46:09;;;;;;;15.80;2.67;;;;;;;;;;6236020;28;20295;-72
2023/03/16 17:49:16;;;;;;;6.70;2.50;;;;;;;;;;6235795;28;20297;-73
2023/03/16 17:52:24;;;;;;;8.27;2.13;;;;;;;;;;6235773;28;20328;-72
2023/03/16 17:55:29;;;;;;;11.93;2.40;;;;;;;;;;6236085;28;20484;-73
2023/03/16 17:58:34;;;;;;;11.27;2.50;;;;;;;;;;6234256;28;20319;-74
2023/03/16 18:01:40;;;;;;;11.17;2.77;;;;;;;;;;6235902;28;20271;-74
2023/03/16 18:04:47;;;;;;;10.10;2.70;;;;;;;;;;6234691;28;20628;-74
2023/03/16 18:07:53;;;;;;;8.53;3.17;;;;;;;;;;6236214;28;20331;-72
2023/03/16 18:11:00;;;;;;;7.53;2.87;;;;;;;;;;6235526;28;20304;-73
2023/03/16 18:14:10;;;;;;;8.93;2.80;;;;;;;;;;6234849;28;20307;-73
2023/03/16 18:17:21;;;;;;;5.70;3.03;;;;;;;;;;6235257;28;20311;-73
2023/03/16 18:20:31;;;;;;;6.17;2.80;;;;;;;;;;6234723;28;20539;-72
2023/03/16 18:23:37;;;;;;;15.33;3.47;;;;;;;;;;6233529;28;20539;-73
2023/03/16 18:26:42;;;;;;;7.20;3.03;;;;;;;;;;6235244;28;20296;-74
2023/03/16 18:29:48;;;;;;;10.73;3.50;;;;;;;;;;6234708;28;20292;-73
2023/03/16 18:32:54;;;;;;;7.77;3.20;;;;;;;;;;6234589;28;20288;-73
2023/03/16 18:36:01;;;;;;;15.13;3.70;;;;;;;;;;6238479;28;20296;-74
2023/03/16 18:39:17;;;;;;;9.27;3.27;;;;;;;;;;6239890;28;20301;-74
2023/03/16 18:42:24;;;;;;;7.17;3.03;;;;;;;;;;6239730;28;20488;-74
2023/03/16 18:45:30;;;;;;;12.80;3.23;;;;;;;;;;6240018;28;20288;-74
2023/03/16 18:48:36;;;;;;;14.03;3.50;;;;;;;;;;6239289;28;20308;-73
2023/03/16 18:51:43;;;;;;;17.97;4.07;;;;;;;;;;6240086;28;20301;-74